createdAt,value
2023-01-04T00:01:33.625Z,99636.98
2023-01-04T00:04:01.967Z,99633.70
2023-01-04T00:06:30.520Z,99624.02
2023-01-04T00:09:00.118Z,99631.82
2023-01-04T00:11:35.631Z,99620.40
2023-01-04T00:14:04.180Z,99627.29
2023-01-04T00:16:32.389Z,99626.25
2023-01-04T00:19:00.559Z,99619.33
2023-01-04T00:21:30.921Z,99622.27
2023-01-04T00:24:01.546Z,99622.28
2023-01-04T00:26:32.955Z,99619.19
2023-01-04T00:29:04.737Z,99618.67
2023-01-04T00:31:34.190Z,99620.08
2023-01-04T00:34:04.450Z,99614.36
2023-01-04T00:36:33.721Z,99622.16
2023-01-04T00:39:10.078Z,99618.00
2023-01-04T00:42:01.543Z,99615.05
2023-01-04T00:44:30.503Z,99616.98
2023-01-04T00:47:00.242Z,99614.72
2023-01-04T00:49:29.720Z,99611.77
2023-01-04T00:51:58.082Z,99614.37
2023-01-04T00:54:26.373Z,99606.23
2023-01-04T00:56:54.544Z,99607.61
2023-01-04T00:59:23.237Z,99610.40
2023-01-04T01:01:52.201Z,99608.50
2023-01-04T01:04:22.059Z,99609.75
2023-01-04T01:06:50.612Z,99610.45
2023-01-04T01:09:23.035Z,99606.67
2023-01-04T01:11:53.723Z,99613.63
2023-01-04T01:14:25.214Z,99617.11
2023-01-04T01:16:57.698Z,99615.59
2023-01-04T01:19:28.755Z,99618.38
2023-01-04T01:21:58.127Z,99612.85
2023-01-04T01:24:27.755Z,99618.04
2023-01-04T01:26:56.429Z,99623.07
2023-01-04T01:29:25.496Z,99619.95
2023-01-04T01:31:53.775Z,99622.36
2023-01-04T01:34:22.078Z,99623.06
2023-01-04T01:36:50.531Z,99622.88
2023-01-04T01:39:18.972Z,99624.08
2023-01-04T01:41:47.083Z,99620.61
2023-01-04T01:44:42.593Z,99617.48
2023-01-04T01:47:17.417Z,99619.41
2023-01-04T01:49:48.169Z,99609.00
2023-01-04T01:52:22.780Z,99619.92
2023-01-04T01:54:59.083Z,99620.25
2023-01-04T01:57:34.279Z,99618.00
2023-01-04T02:00:12.589Z,99608.48
2023-01-04T02:02:59.573Z,99601.58
2023-01-04T02:05:31.778Z,99608.35
2023-01-04T02:08:03.587Z,99600.90
2023-01-04T02:10:32.330Z,99600.22
2023-01-04T02:13:06.728Z,99597.79
2023-01-04T02:16:02.984Z,99595.55
2023-01-04T02:18:57.862Z,99599.20
2023-01-04T02:22:05.737Z,99599.55
2023-01-04T02:25:04.839Z,99596.09
2023-01-04T02:27:59.706Z,99595.05
2023-01-04T02:30:38.479Z,99593.67
2023-01-04T02:33:45.519Z,99590.73
2023-01-04T02:36:26.587Z,99581.04
2023-01-04T02:39:05.983Z,99580.84
2023-01-04T02:41:48.809Z,99581.70
2023-01-04T02:44:53.937Z,99566.13
2023-01-04T02:47:47.170Z,99560.06
2023-01-04T02:50:34.235Z,99572.36
2023-01-04T02:53:07.829Z,99569.06
2023-01-04T02:55:42.244Z,99552.28
2023-01-04T02:58:36.538Z,99569.95
2023-01-04T03:01:35.327Z,99554.20
2023-01-04T03:04:35.110Z,99565.80
2023-01-04T03:07:09.182Z,99561.48
2023-01-04T03:09:44.803Z,99557.15
2023-01-04T03:12:31.768Z,99547.98
2023-01-04T03:15:13.559Z,99560.45
2023-01-04T03:17:52.207Z,99554.05
2023-01-04T03:20:23.220Z,99554.05
2023-01-04T03:23:16.785Z,99545.90
2023-01-04T03:26:12.019Z,99539.34
2023-01-04T03:29:01.254Z,99543.66
2023-01-04T03:32:01.802Z,99541.06
2023-01-04T03:34:48.915Z,99536.23
2023-01-04T03:37:25.895Z,99532.41
2023-01-04T03:40:36.440Z,99511.13
2023-01-04T03:43:35.636Z,99515.96
2023-01-04T03:46:38.013Z,99523.06
2023-01-04T03:49:17.441Z,99522.53
2023-01-04T03:51:46.561Z,99520.63
2023-01-04T03:54:22.074Z,99484.11
2023-01-04T03:56:51.390Z,99513.19
2023-01-04T03:59:22.938Z,99510.08
2023-01-04T04:01:51.394Z,99515.95
2023-01-04T04:04:38.930Z,99516.64
2023-01-04T04:07:26.273Z,99514.05
2023-01-04T04:09:54.643Z,99508.17
2023-01-04T04:12:22.978Z,99510.93
2023-01-04T04:14:51.158Z,99510.58
2023-01-04T04:17:19.437Z,99513.87
2023-01-04T04:19:49.528Z,99507.48
2023-01-04T04:22:25.297Z,99505.92
2023-01-04T04:24:53.797Z,99502.65
2023-01-04T04:27:22.002Z,99504.89
2023-01-04T04:29:50.361Z,99500.21
2023-01-04T04:32:18.555Z,99485.67
2023-01-04T04:34:46.764Z,99490.70
2023-01-04T04:37:15.172Z,99479.10
2023-01-04T04:39:43.440Z,99487.41
2023-01-04T04:42:11.874Z,99480.16
2023-01-04T04:44:40.120Z,99478.42
2023-01-04T04:47:08.163Z,99479.63
2023-01-04T04:49:36.551Z,99470.64
2023-01-04T04:52:04.947Z,99477.05
2023-01-04T04:54:33.135Z,99476.69
2023-01-04T04:57:01.466Z,99475.65
2023-01-04T04:59:30.006Z,99462.67
2023-01-04T05:01:58.349Z,99463.20
2023-01-04T05:04:26.611Z,99459.40
2023-01-04T05:06:54.708Z,99447.11
2023-01-04T05:09:22.804Z,99432.94
2023-01-04T05:12:09.687Z,99452.99
2023-01-04T05:14:37.676Z,99446.41
2023-01-04T05:17:05.928Z,99444.69
2023-01-04T05:19:34.278Z,99442.44
2023-01-04T05:22:04.837Z,99441.56
2023-01-04T05:24:33.107Z,99445.02
2023-01-04T05:27:01.414Z,99445.70
2023-01-04T05:29:48.433Z,99440.52
2023-01-04T05:32:16.591Z,99440.35
2023-01-04T05:34:44.745Z,99435.67
2023-01-04T05:37:12.835Z,99426.50
2023-01-04T05:39:41.006Z,99425.80
2023-01-04T05:42:25.680Z,99441.20
2023-01-04T05:44:57.292Z,99440.84
2023-01-04T05:47:26.233Z,99434.79
2023-01-04T05:49:54.476Z,99431.67
2023-01-04T05:52:22.829Z,99424.58
2023-01-04T05:54:51.162Z,99421.30
2023-01-04T05:57:19.709Z,99428.05
2023-01-04T05:59:47.951Z,99425.11
2023-01-04T06:02:19.393Z,99424.77
2023-01-04T06:04:54.623Z,99423.38
2023-01-04T06:07:32.963Z,99419.58
2023-01-04T06:10:01.085Z,99418.38
2023-01-04T06:12:29.383Z,99416.11
2023-01-04T06:14:57.688Z,99417.34
2023-01-04T06:17:29.504Z,99415.60
2023-01-04T06:19:58.292Z,99418.55
2023-01-04T06:22:29.434Z,99413.20
2023-01-04T06:24:57.543Z,99412.69
2023-01-04T06:27:26.015Z,99407.67
2023-01-04T06:29:55.197Z,99399.04
2023-01-04T06:32:23.530Z,99405.42
2023-01-04T06:34:51.901Z,99405.77
2023-01-04T06:37:19.995Z,99408.00
2023-01-04T06:39:48.148Z,99413.88
2023-01-04T06:42:59.921Z,99424.77
2023-01-04T06:45:34.588Z,99410.06
2023-01-04T06:48:08.740Z,99417.15
2023-01-04T06:50:37.419Z,99397.59
2023-01-04T06:53:05.360Z,99398.45
2023-01-04T06:55:33.839Z,99386.19
2023-01-04T06:58:01.898Z,99386.86
2023-01-04T07:00:30.260Z,99388.92
2023-01-04T07:03:13.492Z,99391.86
2023-01-04T07:05:44.650Z,99380.45
2023-01-04T07:08:14.319Z,99380.09
2023-01-04T07:10:42.911Z,99376.78
2023-01-04T07:13:13.765Z,99372.45
2023-01-04T07:15:42.529Z,99370.52
2023-01-04T07:18:10.726Z,99376.40
2023-01-04T07:20:39.230Z,99372.95
2023-01-04T07:23:08.350Z,99372.42
2023-01-04T07:25:36.533Z,99372.07
2023-01-04T07:28:04.925Z,99368.95
2023-01-04T07:30:33.023Z,99375.70
2023-01-04T07:33:02.159Z,99375.84
2023-01-04T07:35:30.176Z,99376.17
2023-01-04T07:37:59.279Z,99377.38
2023-01-04T07:40:27.827Z,99366.48
2023-01-04T07:42:58.055Z,99377.56
2023-01-04T07:45:26.815Z,99375.48
2023-01-04T07:47:54.787Z,99383.61
2023-01-04T07:50:22.805Z,99387.07
2023-01-04T07:52:51.016Z,99382.58
2023-01-04T07:55:19.316Z,99381.71
2023-01-04T07:57:47.336Z,99383.76
2023-01-04T08:00:15.710Z,99376.28
2023-01-04T08:02:43.899Z,99371.42
2023-01-04T08:05:12.266Z,99372.58
2023-01-04T08:07:40.578Z,99358.89
2023-01-04T08:10:09.106Z,99369.23
2023-01-04T08:12:37.296Z,99370.62
2023-01-04T08:15:05.874Z,99370.58
2023-01-04T08:17:34.368Z,99365.75
2023-01-04T08:20:02.533Z,99362.15
2023-01-04T08:22:30.697Z,99359.75
2023-01-04T08:24:59.411Z,99358.65
2023-01-04T08:27:27.651Z,99360.57
2023-01-04T08:29:55.740Z,99355.45
2023-01-04T08:32:23.867Z,99348.61
2023-01-04T08:34:52.220Z,99347.07
2023-01-04T08:37:21.007Z,99342.51
2023-01-04T08:39:50.052Z,99344.11
2023-01-04T08:42:28.392Z,99337.09
2023-01-04T08:45:01.781Z,99334.16
2023-01-04T08:47:32.316Z,99335.80
2023-01-04T08:50:06.484Z,99324.14
2023-01-04T08:52:38.816Z,99325.55
2023-01-04T08:55:12.631Z,99315.36
2023-01-04T08:57:42.752Z,99326.95
2023-01-04T09:00:12.881Z,99322.07
2023-01-04T09:02:41.219Z,99314.73
2023-01-04T09:05:09.674Z,99315.69
2023-01-04T09:07:39.387Z,99314.41
2023-01-04T09:10:08.245Z,99307.05
2023-01-04T09:12:38.945Z,99312.71
2023-01-04T09:15:07.626Z,99313.66
2023-01-04T09:17:35.573Z,99308.30
2023-01-04T09:20:03.865Z,99308.84
2023-01-04T09:22:31.936Z,99305.16
2023-01-04T09:25:15.965Z,99302.80
2023-01-04T09:27:44.775Z,99297.23
2023-01-04T09:30:12.968Z,99289.95
2023-01-04T09:32:42.872Z,99288.64
2023-01-04T09:35:12.600Z,99281.86
2023-01-04T09:37:42.137Z,99279.44
2023-01-04T09:40:21.933Z,99282.48
2023-01-04T09:42:51.383Z,99270.94
2023-01-04T09:45:40.897Z,99253.61
2023-01-04T09:48:25.877Z,99251.72
2023-01-04T09:51:00.817Z,99243.53
2023-01-04T09:53:31.133Z,99240.63
2023-01-04T09:56:38.449Z,99233.71
2023-01-04T09:59:15.345Z,99220.30
2023-01-04T10:01:46.278Z,99213.52
2023-01-04T10:04:29.614Z,99211.55
2023-01-04T10:07:04.662Z,99204.56
2023-01-04T10:09:34.519Z,99206.70
2023-01-04T10:12:39.424Z,99203.30
2023-01-04T10:15:45.300Z,99192.15
2023-01-04T10:21:44.940Z,99168.50
2023-01-04T10:25:14.533Z,99163.87
2023-01-04T10:28:03.332Z,99164.78
2023-01-04T10:30:31.386Z,99160.55
2023-01-04T10:33:02.717Z,99156.20
2023-01-04T10:35:33.479Z,99151.56
2023-01-04T10:38:13.138Z,99163.29
2023-01-04T10:40:52.626Z,99154.73
2023-01-04T10:44:11.942Z,99133.48
2023-01-04T10:47:10.086Z,99122.38
2023-01-04T10:53:32.008Z,99112.59
2023-01-04T10:56:33.987Z,99107.23
2023-01-04T10:59:11.253Z,99099.16
2023-01-04T11:01:52.626Z,99086.44
2023-01-04T11:04:28.452Z,99094.19
2023-01-04T11:07:02.504Z,99084.11
2023-01-04T11:09:42.641Z,99080.55
2023-01-04T11:12:16.819Z,99071.30
2023-01-04T11:14:45.305Z,99065.45
2023-01-04T11:17:14.391Z,99051.19
2023-01-04T11:19:43.525Z,99048.83
2023-01-04T11:22:42.497Z,99051.93
2023-01-04T11:25:50.468Z,99046.04
2023-01-04T11:28:40.352Z,99034.52
2023-01-04T11:31:09.586Z,99021.85
2023-01-04T11:34:05.021Z,99009.89
2023-01-04T11:36:35.302Z,99008.65
2023-01-04T11:39:06.180Z,99006.29
2023-01-04T11:41:34.563Z,98995.67
2023-01-04T11:47:23.370Z,98973.45
2023-01-04T11:49:55.948Z,98963.24
2023-01-04T11:52:41.464Z,98967.16
2023-01-04T11:55:23.874Z,98969.59
2023-01-04T11:58:08.801Z,98975.61
2023-01-04T12:00:39.760Z,98965.58
2023-01-04T12:03:14.291Z,98956.27
2023-01-04T12:05:44.129Z,98947.12
2023-01-04T12:08:31.462Z,98951.48
2023-01-04T12:11:02.292Z,98939.36
2023-01-04T12:13:31.710Z,98932.65
2023-01-04T12:16:25.088Z,98927.56
2023-01-04T12:18:53.944Z,98937.92
2023-01-04T12:21:24.907Z,98923.79
2023-01-04T12:23:55.627Z,98919.05
2023-01-04T12:26:24.113Z,98924.09
2023-01-04T12:29:24.435Z,98918.96
2023-01-04T12:32:01.429Z,98904.45
2023-01-04T12:34:29.542Z,98906.25
2023-01-04T12:37:05.259Z,98886.19
2023-01-04T12:39:39.243Z,98893.52
2023-01-04T12:42:07.239Z,98887.66
2023-01-04T12:44:44.202Z,98863.20
2023-01-04T12:47:37.168Z,98870.22
2023-01-04T12:50:18.342Z,98860.34
2023-01-04T12:53:20.095Z,98853.27
2023-01-04T12:55:45.612Z,98845.70
2023-01-04T13:01:24.532Z,98813.71
2023-01-04T13:04:06.262Z,98827.55
2023-01-04T13:06:46.370Z,98818.90
2023-01-04T13:09:31.659Z,98823.27
2023-01-04T13:12:15.104Z,98806.96
2023-01-04T13:15:05.843Z,98798.30
2023-01-04T13:17:40.478Z,98794.36
2023-01-04T13:20:30.818Z,98788.61
2023-01-04T13:23:22.667Z,98786.43
2023-01-04T13:26:37.740Z,98790.96
2023-01-04T13:29:12.143Z,98787.05
2023-01-04T13:31:55.428Z,98778.40
2023-01-04T13:34:33.997Z,98769.90
2023-01-04T13:37:17.547Z,98757.27
2023-01-04T13:40:12.040Z,98762.32
2023-01-04T13:42:44.503Z,98772.02
2023-01-04T13:45:47.326Z,98767.79
2023-01-04T13:48:17.152Z,98716.27
2023-01-04T13:50:58.907Z,98736.30
2023-01-04T13:53:28.865Z,98729.86
2023-01-04T13:56:01.873Z,98722.29
2023-01-04T13:58:39.002Z,98703.85
2023-01-04T14:01:43.587Z,98701.50
2023-01-04T14:04:22.563Z,98703.52
2023-01-04T14:06:53.087Z,98712.94
2023-01-04T14:09:25.514Z,98718.49
2023-01-04T14:12:06.070Z,98722.79
2023-01-04T14:15:24.939Z,98716.79
2023-01-04T14:17:57.286Z,98713.02
2023-01-04T14:20:33.853Z,98708.36
2023-01-04T14:23:02.349Z,98714.99
2023-01-04T14:25:48.536Z,98718.30
2023-01-04T14:28:25.111Z,98702.55
2023-01-04T14:31:00.307Z,98692.02
2023-01-04T14:33:39.547Z,98692.80
2023-01-04T14:36:10.490Z,98690.61
2023-01-04T14:38:54.487Z,98685.64
2023-01-04T14:46:46.871Z,98616.71
2023-01-04T14:49:15.966Z,98654.66
2023-01-04T14:51:57.497Z,98661.06
2023-01-04T14:54:26.491Z,98632.59
2023-01-04T14:56:57.373Z,98650.02
2023-01-04T14:59:25.869Z,98652.71
2023-01-04T15:01:54.951Z,98651.10
2023-01-04T15:04:24.728Z,98640.14
2023-01-04T15:06:57.147Z,98633.23
2023-01-04T15:09:26.271Z,98620.08
2023-01-04T15:11:55.037Z,98612.95
2023-01-04T15:14:23.044Z,98614.88
2023-01-04T15:16:51.516Z,98611.55
2023-01-04T15:19:19.651Z,98603.91
2023-01-04T15:21:47.611Z,98606.86
2023-01-04T15:24:15.748Z,98601.64
2023-01-04T15:26:44.901Z,98600.77
2023-01-04T15:29:12.886Z,98587.86
2023-01-04T15:31:43.593Z,98600.05
2023-01-04T15:34:12.014Z,98589.23
2023-01-04T15:36:41.584Z,98594.27
2023-01-04T15:39:14.318Z,98584.29
2023-01-04T15:42:02.508Z,98559.59
2023-01-04T15:44:30.724Z,98562.18
2023-01-04T15:47:00.057Z,98549.20
2023-01-04T15:49:31.350Z,98555.25
2023-01-04T15:52:02.876Z,98548.91
2023-01-04T15:54:38.728Z,98532.51
2023-01-04T15:57:07.213Z,98537.98
2023-01-04T15:59:35.413Z,98548.30
2023-01-04T16:02:05.199Z,98542.67
2023-01-04T16:04:37.288Z,98535.11
2023-01-04T16:07:05.477Z,98532.08
2023-01-04T16:09:33.660Z,98531.91
2023-01-04T16:12:21.241Z,98532.50
2023-01-04T16:15:09.902Z,98536.69
2023-01-04T16:21:13.562Z,98531.66
2023-01-04T16:23:41.900Z,98534.95
2023-01-04T16:26:17.408Z,98528.30
2023-01-04T16:29:00.883Z,98523.19
2023-01-04T16:31:38.851Z,98514.61
2023-01-04T16:34:07.047Z,98489.20
2023-01-04T16:36:35.326Z,98463.11
2023-01-04T16:39:03.372Z,98488.85
2023-01-04T16:41:31.890Z,98493.90
2023-01-04T16:44:01.117Z,98473.05
2023-01-04T16:46:37.635Z,98473.40
2023-01-04T16:49:09.912Z,98466.27
2023-01-04T16:51:39.872Z,98473.30
2023-01-04T16:54:09.320Z,98460.15
2023-01-04T16:56:38.404Z,98462.84
2023-01-04T16:59:08.901Z,98468.52
2023-01-04T17:01:40.922Z,98439.02
2023-01-04T17:04:16.903Z,98450.48
2023-01-04T17:06:46.911Z,98458.05
2023-01-04T17:09:22.395Z,98445.80
2023-01-04T17:14:45.442Z,98434.84
2023-01-04T17:17:14.557Z,98428.69
2023-01-04T17:19:44.918Z,98421.13
2023-01-04T17:22:13.258Z,98418.10
2023-01-04T17:24:41.375Z,98413.31
2023-01-04T17:27:09.805Z,98413.48
2023-01-04T17:29:37.856Z,98417.30
2023-01-04T17:32:05.991Z,98421.83
2023-01-04T17:34:34.323Z,98424.80
2023-01-04T17:37:02.248Z,98424.63
2023-01-04T17:39:32.117Z,98411.50
2023-01-04T17:42:00.157Z,98407.49
2023-01-04T17:44:28.372Z,98399.16
2023-01-04T17:46:56.493Z,98395.78
2023-01-04T17:49:30.879Z,98390.95
2023-01-04T17:52:01.352Z,98393.52
2023-01-04T17:54:29.581Z,98382.69
2023-01-04T17:56:57.812Z,98367.83
2023-01-04T17:59:25.745Z,98366.79
2023-01-04T18:01:53.998Z,98365.09
2023-01-04T18:04:22.272Z,98358.03
2023-01-04T18:06:50.310Z,98352.63
2023-01-04T18:09:22.265Z,98344.23
2023-01-04T18:11:53.154Z,98342.08
2023-01-04T18:14:22.585Z,98332.05
2023-01-04T18:16:57.647Z,98333.86
2023-01-04T18:19:29.441Z,98326.35
2023-01-04T18:21:57.971Z,98333.56
2023-01-04T18:24:41.993Z,98315.75
2023-01-04T18:27:25.697Z,98303.85
2023-01-04T18:30:29.668Z,98306.67
2023-01-04T18:33:06.234Z,98309.86
2023-01-04T18:35:54.147Z,98308.03
2023-01-04T18:38:30.990Z,98309.94
2023-01-04T18:41:09.307Z,98315.06
2023-01-04T18:44:13.371Z,98301.59
2023-01-04T18:46:50.668Z,98309.52
2023-01-04T18:49:19.288Z,98298.23
2023-01-04T18:51:47.671Z,98304.42
2023-01-04T18:54:23.878Z,98283.75
2023-01-04T18:56:58.693Z,98299.36
2023-01-04T18:59:30.135Z,98294.64
2023-01-04T19:02:13.517Z,98296.85
2023-01-04T19:04:58.220Z,98294.34
2023-01-04T19:07:27.357Z,98296.31
2023-01-04T19:09:55.922Z,98287.58
2023-01-04T19:12:24.430Z,98286.48
2023-01-04T19:14:52.608Z,98280.48
2023-01-04T19:17:24.635Z,98276.56
2023-01-04T19:19:53.283Z,98262.13
2023-01-04T19:22:37.335Z,98256.58
2023-01-04T19:25:15.147Z,98259.02
2023-01-04T19:27:51.279Z,98228.64
2023-01-04T19:30:20.211Z,98229.97
2023-01-04T19:32:51.953Z,98220.08
2023-01-04T19:35:20.633Z,98250.79
2023-01-04T19:37:49.462Z,98236.42
2023-01-04T19:40:18.344Z,98237.41
2023-01-04T19:42:58.984Z,98234.57
2023-01-04T19:45:37.191Z,98217.54
2023-01-04T19:48:13.319Z,98230.90
2023-01-04T19:50:42.572Z,98215.49
2023-01-04T19:53:14.371Z,98204.34
2023-01-04T19:55:43.223Z,98204.20
2023-01-04T19:58:14.484Z,98190.79
2023-01-04T20:01:02.626Z,98212.47
2023-01-04T20:03:39.270Z,98202.50
2023-01-04T20:06:38.988Z,98199.07
2023-01-04T20:09:48.795Z,98202.33
2023-01-04T20:12:20.950Z,98199.55
2023-01-04T20:14:51.201Z,98198.84
2023-01-04T20:17:21.429Z,98209.34
2023-01-04T20:19:53.149Z,98213.70
2023-01-04T20:22:21.012Z,98202.21
2023-01-04T20:24:49.196Z,98190.73
2023-01-04T20:27:17.183Z,98190.17
2023-01-04T20:29:45.257Z,98187.36
2023-01-04T20:32:17.553Z,98181.88
2023-01-04T20:34:45.602Z,98182.23
2023-01-04T20:37:14.729Z,98176.70
2023-01-04T20:39:42.743Z,98177.52
2023-01-04T20:42:30.469Z,98177.34
2023-01-04T20:44:59.507Z,98176.35
2023-01-04T20:47:30.099Z,98174.45
2023-01-04T20:49:58.019Z,98172.77
2023-01-04T20:52:25.985Z,98167.61
2023-01-04T20:54:54.026Z,98151.59
2023-01-04T20:57:24.032Z,98146.25
2023-01-04T20:59:51.948Z,98146.77
2023-01-04T21:02:21.206Z,98141.30
2023-01-04T21:04:53.540Z,98143.13
2023-01-04T21:07:21.509Z,98144.55
2023-01-04T21:09:49.453Z,98130.27
2023-01-04T21:12:17.873Z,98126.50
2023-01-04T21:14:47.916Z,98121.08
2023-01-04T21:17:17.960Z,98117.34
2023-01-04T21:19:46.271Z,98118.64
2023-01-04T21:22:14.188Z,98110.29
2023-01-04T21:24:43.900Z,98105.66
2023-01-04T21:27:14.033Z,98107.76
2023-01-04T21:29:44.126Z,98100.08
2023-01-04T21:32:13.202Z,98105.91
2023-01-04T21:34:42.258Z,98109.54
2023-01-04T21:37:11.263Z,98108.82
2023-01-04T21:39:39.391Z,98106.94
2023-01-04T21:42:10.619Z,98109.86
2023-01-04T21:44:39.489Z,98104.36
2023-01-04T21:47:08.559Z,98099.36
2023-01-04T21:49:44.252Z,98094.40
2023-01-04T21:52:15.644Z,98077.98
2023-01-04T21:54:43.879Z,98073.27
2023-01-04T21:57:13.985Z,98058.08
2023-01-04T21:59:41.898Z,98067.48
2023-01-04T22:02:19.952Z,98061.23
2023-01-04T22:04:53.649Z,98057.38
2023-01-04T22:07:21.458Z,98056.91
2023-01-04T22:09:55.428Z,98061.39
2023-01-04T22:12:26.583Z,98059.30
2023-01-04T22:14:55.620Z,98059.83
2023-01-04T22:17:23.717Z,98048.58
2023-01-04T22:19:51.707Z,98053.77
2023-01-04T22:22:23.599Z,98050.29
2023-01-04T22:24:52.280Z,98050.73
2023-01-04T22:27:23.536Z,98054.25
2023-01-04T22:29:57.704Z,98052.23
2023-01-04T22:32:33.685Z,98048.18
2023-01-04T22:35:02.897Z,98055.39
2023-01-04T22:37:34.552Z,98054.70
2023-01-04T22:40:09.396Z,98045.06
2023-01-04T22:42:39.790Z,98035.85
2023-01-04T22:45:13.350Z,98037.46
2023-01-04T22:47:41.643Z,98034.21
2023-01-04T22:50:10.592Z,98026.37
2023-01-04T22:52:38.532Z,98021.73
2023-01-04T22:55:09.037Z,98025.41
2023-01-04T22:57:36.862Z,98017.75
2023-01-04T23:00:16.138Z,98006.10
2023-01-04T23:02:47.615Z,98002.33
2023-01-04T23:05:15.575Z,98015.50
2023-01-04T23:07:43.640Z,98017.04
2023-01-04T23:10:19.794Z,98010.84
2023-01-04T23:12:47.715Z,98000.61
2023-01-04T23:15:16.413Z,97996.08
2023-01-04T23:17:48.511Z,97988.24
2023-01-04T23:20:20.345Z,97978.30
2023-01-04T23:22:49.658Z,97971.01
2023-01-04T23:25:19.616Z,97966.89
2023-01-04T23:27:49.990Z,97968.39
2023-01-04T23:30:22.767Z,97972.10
2023-01-04T23:32:51.717Z,97963.77
2023-01-04T23:35:20.775Z,97959.27
2023-01-04T23:37:48.790Z,97952.61
2023-01-04T23:40:17.164Z,97943.88
2023-01-04T23:42:47.083Z,97934.81
2023-01-04T23:45:15.056Z,97931.48
2023-01-04T23:47:43.032Z,97923.80
2023-01-04T23:50:11.028Z,97918.63
2023-01-04T23:52:39.110Z,97923.11
2023-01-04T23:55:07.362Z,97921.52
2023-01-04T23:57:38.446Z,97922.60
